Time;durP1;ratioP1;P1;durP2;ratioP2;P2;SDS_P1;SDS_P2;PMS_P1;PMS_P2;Temp;Humidity;BMP_temperature;BMP_pressure;BME280_temperature;BME280_humidity;BME280_pressure;Samples;Min_cycle;Max_cycle;Signal;HPM_P1;HPM_P2
2023/04/08 00:01:08;;;;;;;;;;;;;;;;;;4901974;29;19922;-93
2023/04/08 00:03:33;;;;;;;;;;;;;;;;;;4886125;29;19946;-93
2023/04/08 00:06:01;;;;;;;;;;;;;;;;;;4886344;29;19922;-93
2023/04/08 00:08:27;;;;;;;;;;;;;;;;;;4886498;29;19922;-93
2023/04/08 00:10:52;;;;;;;;;;;;;;;;;;4905960;29;19927;-94
2023/04/08 00:13:18;;;;;;;;;;;;;;;;;;4904177;29;20005;-91
2023/04/08 00:15:43;;;;;;;;;;;;;;;;;;4904348;29;19946;-91
2023/04/08 00:18:09;;;;;;;;;;;;;;;;;;4935875;29;20366;-91
2023/04/08 00:20:34;;;;;;;;;;;;;;;;;;4920512;29;19989;-93
2023/04/08 00:23:00;;;;;;;;;;;;;;;;;;4906852;29;19978;-93
2023/04/08 00:25:25;;;;;;;;;;;;;;;;;;4926516;29;19914;-92
2023/04/08 00:27:51;;;;;;;;;;;;;;;;;;4916697;29;19915;-93
2023/04/08 00:30:16;;;;;;;;;;;;;;;;;;4936907;29;19904;-94
2023/04/08 00:32:44;;;;;;;;;;;;;;;;;;4930969;29;20009;-92
2023/04/08 00:35:09;;;;;;;;;;;;;;;;;;4927466;29;19919;-92
2023/04/08 00:37:35;;;;;;;;;;;;;;;;;;4929373;28;19990;-93
2023/04/08 00:40:00;;;;;;;;;;;;;;;;;;4901577;23;19937;-88
2023/04/08 00:42:26;;;;;;;;;;;;;;;;;;4899079;29;19917;-88
2023/04/08 00:44:51;;;;;;;;;;;;;;;;;;4914683;29;20283;-88
2023/04/08 00:47:17;;;;;;;;;;;;;;;;;;4915191;29;19916;-88
2023/04/08 00:49:43;;;;;;;;;;;;;;;;;;4915212;29;19919;-88
2023/04/08 00:52:08;;;;;;;;;;;;;;;;;;4899604;29;20264;-88
2023/04/08 00:54:36;;;;;;;;;;;;;;;;;;4872597;29;19922;-88
2023/04/08 00:57:02;;;;;;;;;;;;;;;;;;4901542;29;20284;-88
2023/04/08 00:59:28;;;;;;;;;;;;;;;;;;4894542;29;20018;-87
2023/04/08 01:01:53;;;;;;;;;;;;;;;;;;4875268;29;19970;-87
2023/04/08 01:04:19;;;;;;;;;;;;;;;;;;4873455;29;19918;-88
2023/04/08 01:06:45;;;;;;;;;;;;;;;;;;4872853;29;19983;-88
2023/04/08 01:09:11;;;;;;;;;;;;;;;;;;4890226;29;19987;-88
2023/04/08 01:11:36;;;;;;;;;;;;;;;;;;4874698;29;19916;-87
2023/04/08 01:14:04;;;;;;;;;;;;;;;;;;4883923;29;20347;-88
2023/04/08 01:16:30;;;;;;;;;;;;;;;;;;4905355;29;19923;-87
2023/04/08 01:18:56;;;;;;;;;;;;;;;;;;4918654;29;19923;-87
2023/04/08 01:21:21;;;;;;;;;;;;;;;;;;4918511;29;19915;-87
2023/04/08 01:23:47;;;;;;;;;;;;;;;;;;4918528;29;19958;-87
2023/04/08 01:26:12;;;;;;;;;;;;;;;;;;4886493;29;19938;-88
2023/04/08 01:28:38;;;;;;;;;;;;;;;;;;4886065;29;19915;-87
2023/04/08 01:31:03;;;;;;;;;;;;;;;;;;4917329;29;19923;-87
2023/04/08 01:33:29;;;;;;;;;;;;;;;;;;4915289;29;19919;-87
2023/04/08 01:35:54;;;;;;;;;;;;;;;;;;4916684;29;19974;-87
2023/04/08 01:38:20;;;;;;;;;;;;;;;;;;4916751;29;19970;-87
2023/04/08 01:40:47;;;;;;;;;;;;;;;;;;4901373;29;19915;-87
2023/04/08 01:43:12;;;;;;;;;;;;;;;;;;4916266;29;19923;-87
2023/04/08 01:45:38;;;;;;;;;;;;;;;;;;4885463;29;19922;-88
2023/04/08 01:48:03;;;;;;;;;;;;;;;;;;4885891;29;19924;-87
2023/04/08 01:50:29;;;;;;;;;;;;;;;;;;4898981;29;20205;-88
2023/04/08 01:52:55;;;;;;;;;;;;;;;;;;4916961;29;19919;-88
2023/04/08 01:55:20;;;;;;;;;;;;;;;;;;4916350;29;19915;-87
2023/04/08 01:57:46;;;;;;;;;;;;;;;;;;4917086;29;19922;-88
2023/04/08 02:00:11;;;;;;;;;;;;;;;;;;4917469;29;19925;-88
2023/04/08 02:02:46;;;;;;;;;;;;;;;;;;4917538;29;19915;-88
2023/04/08 02:05:11;;;;;;;;;;;;;;;;;;4916095;29;19922;-88
2023/04/08 02:07:36;;;;;;;;;;;;;;;;;;4895542;29;19916;-88
2023/04/08 02:10:02;;;;;;;;;;;;;;;;;;4897397;29;19915;-88
2023/04/08 02:12:27;;;;;;;;;;;;;;;;;;4866532;29;19922;-88
2023/04/08 02:14:53;;;;;;;;;;;;;;;;;;4881483;29;19983;-88
2023/04/08 02:17:18;;;;;;;;;;;;;;;;;;4897317;29;19922;-87
2023/04/08 02:19:44;;;;;;;;;;;;;;;;;;4897225;29;19919;-88
2023/04/08 02:22:09;;;;;;;;;;;;;;;;;;4897638;29;19939;-88
2023/04/08 02:24:35;;;;;;;;;;;;;;;;;;4907055;29;19915;-88
2023/04/08 02:27:00;;;;;;;;;;;;;;;;;;4916065;29;20372;-87
2023/04/08 02:29:26;;;;;;;;;;;;;;;;;;4916591;29;19915;-88
2023/04/08 02:31:52;;;;;;;;;;;;;;;;;;4885278;29;19922;-87
2023/04/08 02:34:18;;;;;;;;;;;;;;;;;;4917961;29;19919;-86
2023/04/08 02:36:46;;;;;;;;;;;;;;;;;;4917698;29;19919;-87
2023/04/08 02:39:11;;;;;;;;;;;;;;;;;;4900924;29;19919;-86
2023/04/08 02:41:37;;;;;;;;;;;;;;;;;;4914924;29;20019;-88
2023/04/08 02:44:02;;;;;;;;;;;;;;;;;;4917535;29;19919;-88
2023/04/08 02:46:29;;;;;;;;;;;;;;;;;;4918119;29;19919;-88
2023/04/08 02:48:54;;;;;;;;;;;;;;;;;;4919038;29;20375;-88
2023/04/08 02:51:20;;;;;;;;;;;;;;;;;;4921398;29;19921;-87
2023/04/08 02:53:45;;;;;;;;;;;;;;;;;;4918186;29;19919;-86
2023/04/08 02:56:11;;;;;;;;;;;;;;;;;;4887268;29;19915;-87
2023/04/08 02:58:36;;;;;;;;;;;;;;;;;;4918790;29;19927;-88
2023/04/08 03:01:02;;;;;;;;;;;;;;;;;;4917655;29;20383;-88
2023/04/08 03:03:28;;;;;;;;;;;;;;;;;;4920720;29;20006;-88
2023/04/08 03:05:54;;;;;;;;;;;;;;;;;;4917330;29;19919;-86
2023/04/08 03:08:19;;;;;;;;;;;;;;;;;;4916169;29;19918;-89
2023/04/08 03:10:44;;;;;;;;;;;;;;;;;;4915786;29;20379;-89
2023/04/08 03:13:10;;;;;;;;;;;;;;;;;;4915940;29;19915;-89
2023/04/08 03:15:35;;;;;;;;;;;;;;;;;;4897838;29;19963;-88
2023/04/08 03:18:01;;;;;;;;;;;;;;;;;;4900052;29;20375;-89
2023/04/08 03:20:26;;;;;;;;;;;;;;;;;;4915310;29;19919;-88
2023/04/08 03:22:52;;;;;;;;;;;;;;;;;;4916700;29;19927;-88
2023/04/08 03:25:17;;;;;;;;;;;;;;;;;;4915241;29;20013;-88
2023/04/08 03:27:43;;;;;;;;;;;;;;;;;;4899789;29;20018;-89
2023/04/08 03:30:08;;;;;;;;;;;;;;;;;;4899675;29;19944;-89
2023/04/08 03:32:34;;;;;;;;;;;;;;;;;;4897801;29;19915;-88
2023/04/08 03:34:59;;;;;;;;;;;;;;;;;;4910984;29;19916;-88
2023/04/08 03:37:25;;;;;;;;;;;;;;;;;;4880734;29;20015;-88
2023/04/08 03:39:50;;;;;;;;;;;;;;;;;;4896506;29;20299;-87
2023/04/08 03:42:16;;;;;;;;;;;;;;;;;;4897835;29;19994;-88
2023/04/08 03:44:41;;;;;;;;;;;;;;;;;;4896151;29;19922;-87
2023/04/08 03:47:06;;;;;;;;;;;;;;;;;;4896106;29;19915;-88
2023/04/08 03:49:32;;;;;;;;;;;;;;;;;;4896473;29;19916;-89
2023/04/08 03:51:57;;;;;;;;;;;;;;;;;;4910398;29;20339;-88
2023/04/08 03:54:23;;;;;;;;;;;;;;;;;;4895695;29;19944;-89
2023/04/08 03:56:48;;;;;;;;;;;;;;;;;;4886044;29;19916;-88
2023/04/08 03:59:14;;;;;;;;;;;;;;;;;;4904405;29;19955;-89
2023/04/08 04:01:39;;;;;;;;;;;;;;;;;;4911586;29;20305;-89
2023/04/08 04:04:05;;;;;;;;;;;;;;;;;;4914578;29;19915;-88
2023/04/08 04:06:31;;;;;;;;;;;;;;;;;;4899516;29;20010;-89
2023/04/08 04:08:56;;;;;;;;;;;;;;;;;;4901365;29;19915;-88
2023/04/08 04:11:22;;;;;;;;;;;;;;;;;;4896969;29;20299;-89
2023/04/08 04:13:47;;;;;;;;;;;;;;;;;;4917369;29;19958;-89
2023/04/08 04:16:12;;;;;;;;;;;;;;;;;;4903196;29;20006;-89
2023/04/08 04:18:38;;;;;;;;;;;;;;;;;;4904038;29;19915;-89
2023/04/08 04:21:03;;;;;;;;;;;;;;;;;;4925986;29;20298;-88
2023/04/08 04:23:29;;;;;;;;;;;;;;;;;;4905367;29;19975;-88
2023/04/08 04:25:55;;;;;;;;;;;;;;;;;;4915999;29;19915;-89
2023/04/08 04:28:20;;;;;;;;;;;;;;;;;;4905607;29;19915;-88
2023/04/08 04:30:45;;;;;;;;;;;;;;;;;;4909994;29;19916;-88
2023/04/08 04:33:11;;;;;;;;;;;;;;;;;;4911061;29;19923;-88
2023/04/08 04:35:36;;;;;;;;;;;;;;;;;;4902478;29;19939;-88
2023/04/08 04:38:04;;;;;;;;;;;;;;;;;;4917571;29;20019;-88
2023/04/08 04:40:30;;;;;;;;;;;;;;;;;;4911251;29;19924;-88
2023/04/08 04:42:55;;;;;;;;;;;;;;;;;;4908814;29;20435;-88
2023/04/08 04:45:21;;;;;;;;;;;;;;;;;;4917482;29;20335;-88
2023/04/08 04:47:48;;;;;;;;;;;;;;;;;;4899458;29;20386;-88
2023/04/08 04:50:14;;;;;;;;;;;;;;;;;;4900007;29;20406;-88
2023/04/08 04:52:40;;;;;;;;;;;;;;;;;;4876072;29;20298;-88
2023/04/08 04:55:05;;;;;;;;;;;;;;;;;;4908005;29;19916;-88
2023/04/08 04:57:31;;;;;;;;;;;;;;;;;;4914047;29;20344;-88
2023/04/08 04:59:56;;;;;;;;;;;;;;;;;;4898699;29;19983;-88
2023/04/08 05:02:22;;;;;;;;;;;;;;;;;;4901231;29;19923;-88
2023/04/08 05:04:47;;;;;;;;;;;;;;;;;;4899091;29;19915;-89
2023/04/08 05:07:13;;;;;;;;;;;;;;;;;;4883857;29;19930;-88
2023/04/08 05:09:38;;;;;;;;;;;;;;;;;;4915490;29;19919;-88
2023/04/08 05:12:04;;;;;;;;;;;;;;;;;;4910675;29;19922;-88
2023/04/08 05:14:29;;;;;;;;;;;;;;;;;;4917751;29;19915;-88
2023/04/08 05:16:55;;;;;;;;;;;;;;;;;;4917045;29;19915;-88
2023/04/08 05:19:20;;;;;;;;;;;;;;;;;;4915088;29;19954;-88
2023/04/08 05:21:46;;;;;;;;;;;;;;;;;;4917874;29;19919;-88
2023/04/08 05:24:11;;;;;;;;;;;;;;;;;;4918571;29;19922;-88
2023/04/08 05:26:37;;;;;;;;;;;;;;;;;;4914516;29;20006;-89
2023/04/08 05:29:02;;;;;;;;;;;;;;;;;;4902683;29;19916;-89
2023/04/08 05:31:28;;;;;;;;;;;;;;;;;;4918331;29;20403;-89
2023/04/08 05:33:53;;;;;;;;;;;;;;;;;;4917260;29;19919;-88
2023/04/08 05:36:19;;;;;;;;;;;;;;;;;;4916923;29;19926;-88
2023/04/08 05:38:44;;;;;;;;;;;;;;;;;;4901593;29;19949;-87
2023/04/08 05:41:10;;;;;;;;;;;;;;;;;;4901694;29;19922;-88
2023/04/08 05:43:35;;;;;;;;;;;;;;;;;;4900564;29;19926;-88
2023/04/08 05:46:01;;;;;;;;;;;;;;;;;;4916173;29;19915;-88
2023/04/08 05:48:26;;;;;;;;;;;;;;;;;;4886223;29;20390;-88
2023/04/08 05:50:52;;;;;;;;;;;;;;;;;;4886104;29;19939;-88
2023/04/08 05:53:17;;;;;;;;;;;;;;;;;;4885917;29;20298;-88
2023/04/08 05:55:43;;;;;;;;;;;;;;;;;;4885651;29;19926;-89
2023/04/08 05:58:08;;;;;;;;;;;;;;;;;;4918319;29;19958;-88
2023/04/08 06:00:34;;;;;;;;;;;;;;;;;;4901223;29;20307;-89
2023/04/08 06:02:59;;;;;;;;;;;;;;;;;;4915719;29;19962;-89
2023/04/08 06:05:25;;;;;;;;;;;;;;;;;;4916631;29;19915;-89
2023/04/08 06:07:50;;;;;;;;;;;;;;;;;;4917094;29;19919;-89
2023/04/08 06:10:16;;;;;;;;;;;;;;;;;;4917859;29;19915;-89
2023/04/08 06:12:41;;;;;;;;;;;;;;;;;;4918638;29;19926;-88
2023/04/08 06:15:07;;;;;;;;;;;;;;;;;;4918362;29;19919;-88
2023/04/08 06:17:32;;;;;;;;;;;;;;;;;;4887365;29;20332;-88
2023/04/08 06:19:58;;;;;;;;;;;;;;;;;;4917663;29;19919;-88
2023/04/08 06:22:23;;;;;;;;;;;;;;;;;;4902289;29;20026;-88
2023/04/08 06:24:49;;;;;;;;;;;;;;;;;;4893996;29;19919;-88
2023/04/08 06:27:15;;;;;;;;;;;;;;;;;;4884646;29;19986;-87
2023/04/08 06:29:40;;;;;;;;;;;;;;;;;;4901719;29;19939;-88
2023/04/08 06:32:06;;;;;;;;;;;;;;;;;;4902355;29;19958;-89
2023/04/08 06:34:31;;;;;;;;;;;;;;;;;;4905841;29;19922;-88
2023/04/08 06:36:57;;;;;;;;;;;;;;;;;;4910446;29;19956;-88
2023/04/08 06:39:22;;;;;;;;;;;;;;;;;;4925231;23;19935;-82
2023/04/08 06:41:48;;;;;;;;;;;;;;;;;;4919702;29;19919;-81
2023/04/08 06:44:27;;;;;;;;;;;;;;;;;;4936790;29;19915;-82
2023/04/08 06:46:53;;;;;;;;;;;;;;;;;;4935586;29;19905;-83
2023/04/08 06:49:19;;;;;;;;;;;;;;;;;;4914901;29;19922;-81
2023/04/08 06:51:45;;;;;;;;;;;;;;;;;;4917793;29;19915;-81
2023/04/08 06:54:11;;;;;;;;;;;;;;;;;;4901566;29;19926;-82
2023/04/08 06:56:37;;;;;;;;;;;;;;;;;;4895687;29;19916;-81
2023/04/08 06:59:04;;;;;;;;;;;;;;;;;;4914727;29;19919;-81
2023/04/08 07:01:30;;;;;;;;;;;;;;;;;;4900333;29;19926;-81
2023/04/08 07:03:56;;;;;;;;;;;;;;;;;;4914797;29;19926;-81
2023/04/08 07:06:22;;;;;;;;;;;;;;;;;;4915832;29;19955;-81
2023/04/08 07:08:48;;;;;;;;;;;;;;;;;;4914449;29;19904;-81
2023/04/08 07:11:14;;;;;;;;;;;;;;;;;;4915738;29;20302;-81
2023/04/08 07:13:40;;;;;;;;;;;;;;;;;;4919740;29;19918;-85
2023/04/08 07:16:14;;;;;;;;;;;;;;;;;;4891570;29;19938;-85
2023/04/08 07:21:34;;;;;;;;;;;;;;;;;;5470613;23;19938;-85
2023/04/08 07:32:34;;;;;;;;;;;;;;;;;;5027686;23;19915;-86
2023/04/08 07:35:24;;;;;;;;;;;;;;;;;;4929080;28;19966;-86
2023/04/08 07:37:58;;;;;;;;;;;;;;;;;;4923467;29;19926;-86
2023/04/08 07:40:28;;;;;;;;;;;;;;;;;;4917305;29;19927;-80
2023/04/08 07:42:54;;;;;;;;;;;;;;;;;;4921987;29;19922;-81
2023/04/08 07:45:20;;;;;;;;;;;;;;;;;;4880240;29;19955;-80
2023/04/08 07:47:46;;;;;;;;;;;;;;;;;;4914739;29;19915;-80
2023/04/08 07:50:11;;;;;;;;;;;;;;;;;;4890940;29;19919;-80
2023/04/08 07:52:37;;;;;;;;;;;;;;;;;;4907558;29;19915;-80
2023/04/08 07:55:04;;;;;;;;;;;;;;;;;;4913801;29;19930;-80
2023/04/08 07:57:30;;;;;;;;;;;;;;;;;;4884976;29;19931;-82
2023/04/08 08:00:05;;;;;;;;;;;;;;;;;;4904270;29;19927;-83
2023/04/08 08:02:44;;;;;;;;;;;;;;;;;;4902394;29;20008;-83
2023/04/08 08:05:10;;;;;;;;;;;;;;;;;;4906428;29;19915;-82
2023/04/08 08:07:40;;;;;;;;;;;;;;;;;;4906335;29;19915;-83
2023/04/08 08:10:19;;;;;;;;;;;;;;;;;;4960824;29;19927;-82
2023/04/08 08:12:48;;;;;;;;;;;;;;;;;;4927507;29;19939;-83
2023/04/08 08:15:28;;;;;;;;;;;;;;;;;;4963221;28;19919;-82
2023/04/08 08:17:57;;;;;;;;;;;;;;;;;;4930979;29;19919;-83
2023/04/08 08:20:28;;;;;;;;;;;;;;;;;;4929769;29;19919;-82
2023/04/08 08:22:57;;;;;;;;;;;;;;;;;;4958992;29;19919;-82
2023/04/08 08:25:23;;;;;;;;;;;;;;;;;;4944120;29;19979;-83
2023/04/08 08:27:54;;;;;;;;;;;;;;;;;;4929182;29;19899;-83
2023/04/08 08:30:22;;;;;;;;;;;;;;;;;;4942482;29;19961;-81
2023/04/08 08:32:49;;;;;;;;;;;;;;;;;;4942562;29;19903;-83
2023/04/08 08:35:18;;;;;;;;;;;;;;;;;;4959753;29;19914;-83
2023/04/08 08:37:44;;;;;;;;;;;;;;;;;;4908173;29;19921;-82
2023/04/08 08:40:12;;;;;;;;;;;;;;;;;;4938735;29;19926;-81
2023/04/08 08:42:41;;;;;;;;;;;;;;;;;;4906940;29;19915;-82
2023/04/08 08:45:09;;;;;;;;;;;;;;;;;;4938214;29;19915;-82
2023/04/08 08:47:34;;;;;;;;;;;;;;;;;;4907115;29;19926;-82
2023/04/08 08:50:07;;;;;;;;;;;;;;;;;;4921652;29;19915;-81
2023/04/08 08:52:36;;;;;;;;;;;;;;;;;;4952922;29;19982;-82
2023/04/08 08:55:05;;;;;;;;;;;;;;;;;;4941863;29;19915;-82
2023/04/08 08:57:31;;;;;;;;;;;;;;;;;;4959535;29;19961;-83
2023/04/08 08:59:59;;;;;;;;;;;;;;;;;;4958797;29;19975;-82
2023/04/08 09:02:30;;;;;;;;;;;;;;;;;;4928209;29;19969;-81
2023/04/08 09:05:09;;;;;;;;;;;;;;;;;;4924532;29;19915;-81
2023/04/08 09:07:41;;;;;;;;;;;;;;;;;;4939719;29;19966;-82
2023/04/08 09:10:11;;;;;;;;;;;;;;;;;;4920350;29;19919;-82
2023/04/08 09:12:46;;;;;;;;;;;;;;;;;;4938805;29;19918;-82
2023/04/08 09:15:17;;;;;;;;;;;;;;;;;;4956236;29;19914;-81
2023/04/08 09:17:44;;;;;;;;;;;;;;;;;;4923183;29;19914;-82
2023/04/08 09:20:11;;;;;;;;;;;;;;;;;;4956900;29;19974;-81
2023/04/08 09:22:36;;;;;;;;;;;;;;;;;;4923200;29;19922;-81
2023/04/08 09:25:09;;;;;;;;;;;;;;;;;;4926097;29;19919;-83
2023/04/08 09:27:38;;;;;;;;;;;;;;;;;;4927545;29;19906;-82
2023/04/08 09:30:12;;;;;;;;;;;;;;;;;;4943311;28;19907;-82
2023/04/08 09:32:41;;;;;;;;;;;;;;;;;;4927151;29;19915;-79
2023/04/08 09:35:07;;;;;;;;;;;;;;;;;;4927097;29;19947;-82
2023/04/08 09:37:34;;;;;;;;;;;;;;;;;;4943448;29;19957;-82
2023/04/08 09:40:03;;;;;;;;;;;;;;;;;;4958805;29;19986;-82
2023/04/08 09:42:29;;;;;;;;;;;;;;;;;;4922317;29;19971;-83
2023/04/08 09:45:00;;;;;;;;;;;;;;;;;;4938188;29;19922;-81
2023/04/08 09:47:26;;;;;;;;;;;;;;;;;;4906562;29;19915;-81
2023/04/08 09:49:52;;;;;;;;;;;;;;;;;;4921394;29;19915;-81
2023/04/08 09:52:21;;;;;;;;;;;;;;;;;;4937041;29;19922;-81
2023/04/08 09:54:50;;;;;;;;;;;;;;;;;;4936258;29;19915;-81
2023/04/08 09:57:21;;;;;;;;;;;;;;;;;;4937916;29;19950;-82
2023/04/08 09:59:50;;;;;;;;;;;;;;;;;;4922118;29;19919;-83
2023/04/08 10:02:18;;;;;;;;;;;;;;;;;;4926518;29;19921;-81
2023/04/08 10:04:47;;;;;;;;;;;;;;;;;;4920935;29;19939;-82
2023/04/08 10:07:15;;;;;;;;;;;;;;;;;;4903879;29;20283;-82
2023/04/08 10:09:42;;;;;;;;;;;;;;;;;;4934530;29;19919;-82
2023/04/08 10:12:08;;;;;;;;;;;;;;;;;;4916879;29;19991;-82
2023/04/08 10:14:34;;;;;;;;;;;;;;;;;;4918772;29;19912;-81
2023/04/08 10:17:02;;;;;;;;;;;;;;;;;;4903909;29;19925;-83
2023/04/08 10:19:31;;;;;;;;;;;;;;;;;;4913097;29;19915;-82
2023/04/08 10:22:00;;;;;;;;;;;;;;;;;;4936294;29;19915;-82
2023/04/08 10:24:29;;;;;;;;;;;;;;;;;;4937329;29;19919;-83
2023/04/08 10:27:18;;;;;;;;;;;;;;;;;;4943642;29;19918;-82
2023/04/08 10:29:47;;;;;;;;;;;;;;;;;;4924993;29;19926;-81
2023/04/08 10:32:13;;;;;;;;;;;;;;;;;;4938772;29;19915;-82
2023/04/08 10:34:42;;;;;;;;;;;;;;;;;;4921702;29;19915;-82
2023/04/08 10:37:09;;;;;;;;;;;;;;;;;;4935881;29;19915;-81
2023/04/08 10:39:55;;;;;;;;;;;;;;;;;;4939602;29;19923;-82
2023/04/08 10:42:25;;;;;;;;;;;;;;;;;;4939229;29;19925;-82
2023/04/08 10:44:54;;;;;;;;;;;;;;;;;;4926284;29;19915;-84
2023/04/08 10:47:31;;;;;;;;;;;;;;;;;;4956295;29;19919;-83
2023/04/08 10:50:00;;;;;;;;;;;;;;;;;;4938858;29;20005;-82
2023/04/08 10:52:26;;;;;;;;;;;;;;;;;;4922582;29;19915;-82
2023/04/08 10:54:52;;;;;;;;;;;;;;;;;;4953339;29;19939;-83
2023/04/08 10:57:24;;;;;;;;;;;;;;;;;;4924642;29;19978;-82
2023/04/08 11:00:04;;;;;;;;;;;;;;;;;;4928960;29;20093;-82
2023/04/08 11:02:37;;;;;;;;;;;;;;;;;;4941676;29;19915;-81
2023/04/08 11:05:04;;;;;;;;;;;;;;;;;;4924397;29;19950;-83
2023/04/08 11:07:30;;;;;;;;;;;;;;;;;;4939094;29;19918;-82
2023/04/08 11:10:02;;;;;;;;;;;;;;;;;;4947702;29;19919;-82
2023/04/08 11:12:39;;;;;;;;;;;;;;;;;;4938844;29;19911;-83
2023/04/08 11:15:05;;;;;;;;;;;;;;;;;;4940221;29;19923;-82
2023/04/08 11:17:33;;;;;;;;;;;;;;;;;;4924937;29;19939;-82
2023/04/08 11:20:08;;;;;;;;;;;;;;;;;;4940957;29;19918;-81
2023/04/08 11:22:35;;;;;;;;;;;;;;;;;;4925996;29;19942;-82
2023/04/08 11:25:14;;;;;;;;;;;;;;;;;;4927156;29;19895;-83
2023/04/08 11:27:45;;;;;;;;;;;;;;;;;;4926827;29;19957;-82
2023/04/08 11:30:20;;;;;;;;;;;;;;;;;;4956964;29;19921;-82
2023/04/08 11:33:02;;;;;;;;;;;;;;;;;;4943004;29;19927;-82
2023/04/08 11:35:33;;;;;;;;;;;;;;;;;;4941410;29;19922;-82
2023/04/08 11:38:05;;;;;;;;;;;;;;;;;;4938899;29;19915;-82
2023/04/08 11:40:31;;;;;;;;;;;;;;;;;;4920447;29;19926;-82
2023/04/08 11:43:02;;;;;;;;;;;;;;;;;;4937616;29;19949;-82
2023/04/08 11:45:31;;;;;;;;;;;;;;;;;;4919168;29;19975;-81
2023/04/08 11:47:59;;;;;;;;;;;;;;;;;;4935126;29;19942;-82
2023/04/08 11:50:37;;;;;;;;;;;;;;;;;;4921163;29;19954;-82
2023/04/08 11:53:06;;;;;;;;;;;;;;;;;;4934474;29;19971;-81
2023/04/08 11:55:35;;;;;;;;;;;;;;;;;;4920205;29;20042;-82
2023/04/08 11:58:01;;;;;;;;;;;;;;;;;;4933317;29;19922;-81
2023/04/08 12:00:27;;;;;;;;;;;;;;;;;;4933164;29;19903;-82
2023/04/08 12:02:53;;;;;;;;;;;;;;;;;;4934811;29;19915;-81
2023/04/08 12:05:20;;;;;;;;;;;;;;;;;;4916743;29;19975;-82
2023/04/08 12:07:46;;;;;;;;;;;;;;;;;;4935561;29;19938;-80
2023/04/08 12:10:12;;;;;;;;;;;;;;;;;;4933412;29;19918;-81
2023/04/08 12:12:40;;;;;;;;;;;;;;;;;;4918510;29;19939;-81
2023/04/08 12:15:09;;;;;;;;;;;;;;;;;;4933591;29;19921;-81
2023/04/08 12:17:40;;;;;;;;;;;;;;;;;;4918117;29;19922;-82
2023/04/08 12:20:06;;;;;;;;;;;;;;;;;;4930558;29;19919;-81
2023/04/08 12:22:35;;;;;;;;;;;;;;;;;;4916584;29;19919;-80
2023/04/08 12:25:10;;;;;;;;;;;;;;;;;;4923109;29;19983;-83
2023/04/08 12:27:44;;;;;;;;;;;;;;;;;;4939916;29;19953;-83
2023/04/08 12:30:14;;;;;;;;;;;;;;;;;;4929863;29;19926;-82
2023/04/08 12:32:41;;;;;;;;;;;;;;;;;;4926784;29;19915;-82
2023/04/08 12:35:10;;;;;;;;;;;;;;;;;;4943290;29;19930;-82
2023/04/08 12:37:47;;;;;;;;;;;;;;;;;;4943267;29;19914;-83
2023/04/08 12:40:14;;;;;;;;;;;;;;;;;;4925702;23;19915;-92
2023/04/08 12:42:40;;;;;;;;;;;;;;;;;;4889985;29;19920;-92
2023/04/08 12:45:05;;;;;;;;;;;;;;;;;;4890456;29;19986;-92
2023/04/08 12:47:32;;;;;;;;;;;;;;;;;;4905071;29;19952;-91
2023/04/08 12:49:58;;;;;;;;;;;;;;;;;;4883879;29;19916;-92
2023/04/08 12:52:27;;;;;;;;;;;;;;;;;;4896059;29;19916;-90
2023/04/08 12:54:53;;;;;;;;;;;;;;;;;;4879853;29;19923;-90
2023/04/08 12:57:19;;;;;;;;;;;;;;;;;;4879380;29;19972;-93
2023/04/08 12:59:45;;;;;;;;;;;;;;;;;;4878650;29;20346;-92
2023/04/08 13:02:10;;;;;;;;;;;;;;;;;;4899010;29;19947;-90
2023/04/08 13:04:39;;;;;;;;;;;;;;;;;;4898492;29;19943;-92
2023/04/08 13:07:06;;;;;;;;;;;;;;;;;;4896575;29;19940;-93
2023/04/08 13:09:34;;;;;;;;;;;;;;;;;;4890608;29;19916;-91
2023/04/08 13:14:57;;;;;;;;;;;;;;;;;;4873145;29;19916;-91
2023/04/08 13:17:29;;;;;;;;;;;;;;;;;;4876449;29;19999;-91
2023/04/08 13:19:57;;;;;;;;;;;;;;;;;;4884984;29;19924;-92
2023/04/08 13:22:23;;;;;;;;;;;;;;;;;;4870805;29;19916;-92
2023/04/08 13:24:49;;;;;;;;;;;;;;;;;;4855342;29;19930;-92
2023/04/08 13:27:15;;;;;;;;;;;;;;;;;;4868514;29;19922;-91
2023/04/08 13:29:40;;;;;;;;;;;;;;;;;;4866248;29;19934;-94
2023/04/08 13:32:09;;;;;;;;;;;;;;;;;;4882174;29;20553;-93
2023/04/08 13:34:34;;;;;;;;;;;;;;;;;;4852941;29;19964;-92
2023/04/08 13:37:01;;;;;;;;;;;;;;;;;;4880980;29;19984;-92
2023/04/08 13:39:26;;;;;;;;;;;;;;;;;;4851158;29;19921;-92
2023/04/08 13:41:55;;;;;;;;;;;;;;;;;;4855360;29;19928;-94
2023/04/08 13:44:20;;;;;;;;;;;;;;;;;;4854524;29;19923;-94
2023/04/08 13:46:46;;;;;;;;;;;;;;;;;;4901233;29;19916;-92
2023/04/08 13:49:12;;;;;;;;;;;;;;;;;;4869852;29;19922;-92
2023/04/08 13:51:41;;;;;;;;;;;;;;;;;;4869051;29;19980;-92
2023/04/08 13:54:06;;;;;;;;;;;;;;;;;;4868377;29;20013;-93
2023/04/08 13:56:32;;;;;;;;;;;;;;;;;;4868193;29;19938;-92
2023/04/08 13:58:58;;;;;;;;;;;;;;;;;;4870184;29;19983;-91
2023/04/08 14:01:27;;;;;;;;;;;;;;;;;;4870008;29;19947;-94
2023/04/08 14:03:52;;;;;;;;;;;;;;;;;;4855034;29;19916;-93
2023/04/08 14:06:18;;;;;;;;;;;;;;;;;;4854857;29;19923;-93
2023/04/08 14:08:44;;;;;;;;;;;;;;;;;;4858965;29;19916;-91
2023/04/08 14:11:10;;;;;;;;;;;;;;;;;;4871041;29;20011;-92
2023/04/08 14:13:36;;;;;;;;;;;;;;;;;;4853237;29;19963;-94
2023/04/08 14:16:20;;;;;;;;;;;;;;;;;;4865848;29;19916;-93
2023/04/08 14:19:20;;;;;;;;;;;;;;;;;;4886217;29;19920;-94
2023/04/08 14:21:49;;;;;;;;;;;;;;;;;;4867882;29;19915;-93
2023/04/08 14:24:22;;;;;;;;;;;;;;;;;;4882612;29;19923;-93
2023/04/08 14:26:47;;;;;;;;;;;;;;;;;;4883998;29;19915;-94
2023/04/08 14:29:13;;;;;;;;;;;;;;;;;;4877370;29;19919;-95
2023/04/08 14:31:41;;;;;;;;;;;;;;;;;;4874690;29;20006;-91
2023/04/08 14:34:07;;;;;;;;;;;;;;;;;;4873857;29;19955;-93
2023/04/08 14:36:36;;;;;;;;;;;;;;;;;;4867516;29;19927;-88
2023/04/08 14:39:10;;;;;;;;;;;;;;;;;;4865235;29;19931;-88
2023/04/08 14:41:40;;;;;;;;;;;;;;;;;;4886439;29;19966;-90
2023/04/08 14:44:39;;;;;;;;;;;;;;;;;;5387174;23;19911;-91
2023/04/08 14:47:06;;;;;;;;;;;;;;;;;;4928472;29;19918;-90
2023/04/08 14:49:32;;;;;;;;;;;;;;;;;;4926063;28;20116;-91
2023/04/08 14:52:07;;;;;;;;;;;;;;;;;;4909112;29;19943;-91
2023/04/08 14:54:32;;;;;;;;;;;;;;;;;;4923568;29;19987;-91
2023/04/08 14:56:58;;;;;;;;;;;;;;;;;;4920795;29;19982;-92
2023/04/08 14:59:24;;;;;;;;;;;;;;;;;;4906423;29;19995;-92
2023/04/08 15:01:49;;;;;;;;;;;;;;;;;;4921118;29;19940;-91
2023/04/08 15:04:15;;;;;;;;;;;;;;;;;;4922169;29;19991;-91
2023/04/08 15:06:41;;;;;;;;;;;;;;;;;;4920125;29;19918;-91
2023/04/08 15:09:09;;;;;;;;;;;;;;;;;;4918347;29;19915;-91
2023/04/08 15:11:35;;;;;;;;;;;;;;;;;;4911809;29;19939;-92
2023/04/08 15:14:01;;;;;;;;;;;;;;;;;;4899526;29;19915;-92
2023/04/08 15:16:27;;;;;;;;;;;;;;;;;;4896761;29;19923;-90
2023/04/08 15:18:53;;;;;;;;;;;;;;;;;;4896844;29;19963;-90
2023/04/08 15:21:19;;;;;;;;;;;;;;;;;;4896248;29;19915;-91
2023/04/08 15:23:45;;;;;;;;;;;;;;;;;;4894354;29;19999;-93
2023/04/08 15:26:11;;;;;;;;;;;;;;;;;;4890874;29;19970;-93
2023/04/08 15:28:40;;;;;;;;;;;;;;;;;;4889782;29;20169;-94
2023/04/08 15:31:06;;;;;;;;;;;;;;;;;;4869305;29;19971;-93
2023/04/08 15:33:31;;;;;;;;;;;;;;;;;;4884475;29;19919;-92
2023/04/08 15:35:58;;;;;;;;;;;;;;;;;;4914404;29;19922;-93
2023/04/08 15:38:25;;;;;;;;;;;;;;;;;;4883320;29;19919;-93
2023/04/08 15:40:51;;;;;;;;;;;;;;;;;;4884386;29;19922;-93
2023/04/08 15:43:20;;;;;;;;;;;;;;;;;;4869291;29;20030;-93
2023/04/08 15:45:47;;;;;;;;;;;;;;;;;;4885986;29;19983;-92
2023/04/08 15:48:12;;;;;;;;;;;;;;;;;;4916576;29;20042;-93
2023/04/08 15:50:38;;;;;;;;;;;;;;;;;;4872648;29;19951;-93
2023/04/08 15:53:08;;;;;;;;;;;;;;;;;;4872343;29;19994;-91
2023/04/08 15:55:33;;;;;;;;;;;;;;;;;;4905150;29;19916;-91
2023/04/08 15:57:59;;;;;;;;;;;;;;;;;;4887252;29;20007;-93
2023/04/08 16:00:25;;;;;;;;;;;;;;;;;;4900019;29;19930;-94
2023/04/08 16:02:53;;;;;;;;;;;;;;;;;;4903952;29;19916;-93
2023/04/08 16:05:26;;;;;;;;;;;;;;;;;;4896625;29;20209;-94
2023/04/08 16:07:55;;;;;;;;;;;;;;;;;;4911393;29;19974;-96
2023/04/08 16:10:42;;;;;;;;;;;;;;;;;;4906340;29;19945;-87
2023/04/08 16:13:07;;;;;;;;;;;;;;;;;;4903751;29;19915;-82
2023/04/08 16:15:33;;;;;;;;;;;;;;;;;;4903337;29;19922;-86
2023/04/08 16:18:01;;;;;;;;;;;;;;;;;;4903575;29;19921;-84
2023/04/08 16:20:27;;;;;;;;;;;;;;;;;;4901941;29;19923;-87
2023/04/08 16:22:53;;;;;;;;;;;;;;;;;;4904584;29;19915;-80
2023/04/08 16:25:18;;;;;;;;;;;;;;;;;;4904448;29;20010;-83
2023/04/08 16:27:47;;;;;;;;;;;;;;;;;;4908048;29;19935;-93
2023/04/08 16:30:13;;;;;;;;;;;;;;;;;;4890750;29;19966;-90
2023/04/08 16:32:40;;;;;;;;;;;;;;;;;;4893366;29;19915;-91
2023/04/08 16:35:11;;;;;;;;;;;;;;;;;;4907892;29;20371;-93
2023/04/08 16:37:39;;;;;;;;;;;;;;;;;;4889006;29;19971;-94
2023/04/08 16:40:05;;;;;;;;;;;;;;;;;;4888577;29;19919;-92
2023/04/08 16:42:31;;;;;;;;;;;;;;;;;;4889107;29;19915;-93
2023/04/08 16:44:58;;;;;;;;;;;;;;;;;;4904151;29;19927;-95
2023/04/08 16:47:24;;;;;;;;;;;;;;;;;;4888518;29;19921;-93
2023/04/08 16:49:49;;;;;;;;;;;;;;;;;;4905152;29;19962;-94
2023/04/08 16:52:15;;;;;;;;;;;;;;;;;;4889035;29;19923;-92
2023/04/08 16:54:45;;;;;;;;;;;;;;;;;;4878556;29;19922;-92
2023/04/08 16:57:11;;;;;;;;;;;;;;;;;;4883531;29;19940;-90
2023/04/08 16:59:43;;;;;;;;;;;;;;;;;;4903125;29;19962;-88
2023/04/08 17:02:15;;;;;;;;;;;;;;;;;;4892053;29;19952;-88